sensor_id;sensor_type;location;lat;lon;timestamp;temperature;humidity
22319;DHT22;11327;52.334;9.506;2023-12-04T00:03:06;-0.20;99.90
22319;DHT22;11327;52.334;9.506;2023-12-04T00:06:27;-0.20;99.90
22319;DHT22;11327;52.334;9.506;2023-12-04T00:09:47;-0.20;99.90
22319;DHT22;11327;52.334;9.506;2023-12-04T00:13:08;-0.20;99.90
22319;DHT22;11327;52.334;9.506;2023-12-04T00:16:29;-0.20;99.90
22319;DHT22;11327;52.334;9.506;2023-12-04T00:19:49;-0.20;99.90
22319;DHT22;11327;52.334;9.506;2023-12-04T00:23:10;-0.20;99.90
22319;DHT22;11327;52.334;9.506;2023-12-04T00:26:31;-0.20;99.90
22319;DHT22;11327;52.334;9.506;2023-12-04T00:29:52;-0.20;99.90
22319;DHT22;11327;52.334;9.506;2023-12-04T00:33:13;-0.20;99.90
22319;DHT22;11327;52.334;9.506;2023-12-04T00:36:34;-0.20;99.90
22319;DHT22;11327;52.334;9.506;2023-12-04T00:39:54;-0.20;99.90
22319;DHT22;11327;52.334;9.506;2023-12-04T00:43:15;-0.20;99.90
22319;DHT22;11327;52.334;9.506;2023-12-04T00:46:36;-0.20;99.90
22319;DHT22;11327;52.334;9.506;2023-12-04T00:49:57;-0.20;99.90
22319;DHT22;11327;52.334;9.506;2023-12-04T00:53:17;-0.20;99.90
22319;DHT22;11327;52.334;9.506;2023-12-04T00:56:38;-0.30;99.90
22319;DHT22;11327;52.334;9.506;2023-12-04T01:00:01;-0.30;99.90
22319;DHT22;11327;52.334;9.506;2023-12-04T01:03:22;-0.20;99.90
22319;DHT22;11327;52.334;9.506;2023-12-04T01:06:43;-0.20;99.90
22319;DHT22;11327;52.334;9.506;2023-12-04T01:10:04;-0.20;99.90
22319;DHT22;11327;52.334;9.506;2023-12-04T01:13:25;-0.20;99.90
22319;DHT22;11327;52.334;9.506;2023-12-04T01:16:46;-0.20;99.90
22319;DHT22;11327;52.334;9.506;2023-12-04T01:20:07;0.00;99.90
22319;DHT22;11327;52.334;9.506;2023-12-04T01:23:28;-0.10;99.90
22319;DHT22;11327;52.334;9.506;2023-12-04T01:26:49;-0.10;99.90
22319;DHT22;11327;52.334;9.506;2023-12-04T01:30:11;-0.20;99.90
22319;DHT22;11327;52.334;9.506;2023-12-04T01:33:31;-0.20;99.90
22319;DHT22;11327;52.334;9.506;2023-12-04T01:36:52;-0.20;99.90
22319;DHT22;11327;52.334;9.506;2023-12-04T01:40:13;-0.20;99.90
22319;DHT22;11327;52.334;9.506;2023-12-04T01:43:34;-0.30;99.90
22319;DHT22;11327;52.334;9.506;2023-12-04T01:46:55;-0.40;99.90
22319;DHT22;11327;52.334;9.506;2023-12-04T01:50:17;-0.50;99.90
22319;DHT22;11327;52.334;9.506;2023-12-04T01:53:39;-0.50;99.90
22319;DHT22;11327;52.334;9.506;2023-12-04T01:57:01;-0.60;99.90
22319;DHT22;11327;52.334;9.506;2023-12-04T02:00:23;-0.60;99.90
22319;DHT22;11327;52.334;9.506;2023-12-04T02:03:43;-0.60;99.90
22319;DHT22;11327;52.334;9.506;2023-12-04T02:07:04;-0.50;99.90
22319;DHT22;11327;52.334;9.506;2023-12-04T02:10:25;-0.40;99.90
22319;DHT22;11327;52.334;9.506;2023-12-04T02:13:46;-0.40;99.90
22319;DHT22;11327;52.334;9.506;2023-12-04T02:17:07;-0.50;99.90
22319;DHT22;11327;52.334;9.506;2023-12-04T02:20:33;-0.50;99.90
22319;DHT22;11327;52.334;9.506;2023-12-04T02:23:54;-0.50;99.90
22319;DHT22;11327;52.334;9.506;2023-12-04T02:27:32;-0.50;99.90
22319;DHT22;11327;52.334;9.506;2023-12-04T02:30:52;-0.40;99.90
22319;DHT22;11327;52.334;9.506;2023-12-04T02:34:15;-0.50;99.90
22319;DHT22;11327;52.334;9.506;2023-12-04T02:37:38;-0.40;99.90
22319;DHT22;11327;52.334;9.506;2023-12-04T02:41:00;-0.40;99.90
22319;DHT22;11327;52.334;9.506;2023-12-04T02:44:20;-0.40;99.90
22319;DHT22;11327;52.334;9.506;2023-12-04T02:47:43;-0.40;99.90
22319;DHT22;11327;52.334;9.506;2023-12-04T02:51:04;-0.40;99.90
22319;DHT22;11327;52.334;9.506;2023-12-04T02:54:25;-0.40;99.90
22319;DHT22;11327;52.334;9.506;2023-12-04T02:57:46;-0.40;99.90
22319;DHT22;11327;52.334;9.506;2023-12-04T03:01:06;-0.30;99.90
22319;DHT22;11327;52.334;9.506;2023-12-04T03:04:31;-0.30;99.90
22319;DHT22;11327;52.334;9.506;2023-12-04T03:07:52;-0.30;99.90
22319;DHT22;11327;52.334;9.506;2023-12-04T03:11:12;-0.20;99.90
22319;DHT22;11327;52.334;9.506;2023-12-04T03:14:33;-0.20;99.90
22319;DHT22;11327;52.334;9.506;2023-12-04T03:17:55;-0.20;99.90
22319;DHT22;11327;52.334;9.506;2023-12-04T03:21:16;0.00;99.90
22319;DHT22;11327;52.334;9.506;2023-12-04T03:24:36;0.00;99.90
22319;DHT22;11327;52.334;9.506;2023-12-04T03:27:57;0.00;99.90
22319;DHT22;11327;52.334;9.506;2023-12-04T03:31:18;0.10;99.90
22319;DHT22;11327;52.334;9.506;2023-12-04T03:34:38;0.10;99.90
22319;DHT22;11327;52.334;9.506;2023-12-04T03:37:59;0.10;99.90
22319;DHT22;11327;52.334;9.506;2023-12-04T03:41:20;0.10;99.90
22319;DHT22;11327;52.334;9.506;2023-12-04T03:44:42;0.10;99.90
22319;DHT22;11327;52.334;9.506;2023-12-04T03:48:03;0.20;99.90
22319;DHT22;11327;52.334;9.506;2023-12-04T03:51:24;0.20;99.90
22319;DHT22;11327;52.334;9.506;2023-12-04T03:54:45;0.10;99.90
22319;DHT22;11327;52.334;9.506;2023-12-04T03:58:05;0.10;99.90
22319;DHT22;11327;52.334;9.506;2023-12-04T04:01:26;0.10;99.90
22319;DHT22;11327;52.334;9.506;2023-12-04T04:04:47;0.10;99.90
22319;DHT22;11327;52.334;9.506;2023-12-04T04:08:07;0.10;99.90
22319;DHT22;11327;52.334;9.506;2023-12-04T04:11:28;0.10;99.90
22319;DHT22;11327;52.334;9.506;2023-12-04T04:14:49;0.10;99.90
22319;DHT22;11327;52.334;9.506;2023-12-04T04:18:10;0.10;99.90
22319;DHT22;11327;52.334;9.506;2023-12-04T04:21:30;0.10;99.90
22319;DHT22;11327;52.334;9.506;2023-12-04T04:24:51;0.10;99.90
22319;DHT22;11327;52.334;9.506;2023-12-04T04:28:12;0.10;99.90
22319;DHT22;11327;52.334;9.506;2023-12-04T04:31:32;0.10;99.90
22319;DHT22;11327;52.334;9.506;2023-12-04T04:34:53;0.20;99.90
22319;DHT22;11327;52.334;9.506;2023-12-04T04:38:14;0.10;99.90
22319;DHT22;11327;52.334;9.506;2023-12-04T04:41:35;0.10;99.90
22319;DHT22;11327;52.334;9.506;2023-12-04T04:44:55;0.10;99.90
22319;DHT22;11327;52.334;9.506;2023-12-04T04:48:16;0.00;99.90
22319;DHT22;11327;52.334;9.506;2023-12-04T04:51:37;0.00;99.90
22319;DHT22;11327;52.334;9.506;2023-12-04T04:54:57;0.00;99.90
22319;DHT22;11327;52.334;9.506;2023-12-04T04:58:18;0.10;99.90
22319;DHT22;11327;52.334;9.506;2023-12-04T05:01:39;0.00;99.90
22319;DHT22;11327;52.334;9.506;2023-12-04T05:05:01;0.00;99.90
22319;DHT22;11327;52.334;9.506;2023-12-04T05:08:21;0.00;99.90
22319;DHT22;11327;52.334;9.506;2023-12-04T05:11:42;0.00;99.90
22319;DHT22;11327;52.334;9.506;2023-12-04T05:15:03;0.00;99.90
22319;DHT22;11327;52.334;9.506;2023-12-04T05:18:25;0.00;99.90
22319;DHT22;11327;52.334;9.506;2023-12-04T05:21:46;0.10;99.90
22319;DHT22;11327;52.334;9.506;2023-12-04T05:25:07;0.10;99.90
22319;DHT22;11327;52.334;9.506;2023-12-04T05:28:28;0.10;99.90
22319;DHT22;11327;52.334;9.506;2023-12-04T05:31:49;0.10;99.90
22319;DHT22;11327;52.334;9.506;2023-12-04T05:35:10;0.10;99.90
22319;DHT22;11327;52.334;9.506;2023-12-04T05:38:30;0.10;99.90
22319;DHT22;11327;52.334;9.506;2023-12-04T05:41:51;0.20;99.90
22319;DHT22;11327;52.334;9.506;2023-12-04T05:45:12;0.20;99.90
22319;DHT22;11327;52.334;9.506;2023-12-04T05:48:32;0.30;99.90
22319;DHT22;11327;52.334;9.506;2023-12-04T05:51:53;0.30;99.90
22319;DHT22;11327;52.334;9.506;2023-12-04T05:55:14;0.30;99.90
22319;DHT22;11327;52.334;9.506;2023-12-04T05:58:35;0.40;99.90
22319;DHT22;11327;52.334;9.506;2023-12-04T06:01:55;0.40;99.90
22319;DHT22;11327;52.334;9.506;2023-12-04T06:05:16;0.40;99.90
22319;DHT22;11327;52.334;9.506;2023-12-04T06:08:37;0.40;99.90
22319;DHT22;11327;52.334;9.506;2023-12-04T06:11:58;0.40;99.90
22319;DHT22;11327;52.334;9.506;2023-12-04T06:15:18;0.40;99.90
22319;DHT22;11327;52.334;9.506;2023-12-04T06:18:39;0.40;99.90
22319;DHT22;11327;52.334;9.506;2023-12-04T06:22:00;0.40;99.90
22319;DHT22;11327;52.334;9.506;2023-12-04T06:25:21;0.50;99.90
22319;DHT22;11327;52.334;9.506;2023-12-04T06:28:43;0.50;99.90
22319;DHT22;11327;52.334;9.506;2023-12-04T06:32:04;0.50;99.90
22319;DHT22;11327;52.334;9.506;2023-12-04T06:35:25;0.50;99.90
22319;DHT22;11327;52.334;9.506;2023-12-04T06:38:47;0.50;99.90
22319;DHT22;11327;52.334;9.506;2023-12-04T06:42:11;0.50;99.90
22319;DHT22;11327;52.334;9.506;2023-12-04T06:45:32;0.60;99.90
22319;DHT22;11327;52.334;9.506;2023-12-04T06:48:54;0.50;99.90
22319;DHT22;11327;52.334;9.506;2023-12-04T06:52:17;0.50;99.90
22319;DHT22;11327;52.334;9.506;2023-12-04T06:55:37;0.40;99.90
22319;DHT22;11327;52.334;9.506;2023-12-04T06:58:58;0.50;99.90
22319;DHT22;11327;52.334;9.506;2023-12-04T07:02:19;0.50;99.90
22319;DHT22;11327;52.334;9.506;2023-12-04T07:05:40;0.60;99.90
22319;DHT22;11327;52.334;9.506;2023-12-04T07:09:00;0.70;99.90
22319;DHT22;11327;52.334;9.506;2023-12-04T07:12:21;0.80;99.90
22319;DHT22;11327;52.334;9.506;2023-12-04T07:15:42;0.80;99.90
22319;DHT22;11327;52.334;9.506;2023-12-04T07:19:02;0.80;99.90
22319;DHT22;11327;52.334;9.506;2023-12-04T07:22:23;0.90;99.90
22319;DHT22;11327;52.334;9.506;2023-12-04T07:25:44;0.90;99.90
22319;DHT22;11327;52.334;9.506;2023-12-04T07:29:06;1.00;99.90
22319;DHT22;11327;52.334;9.506;2023-12-04T07:32:27;0.90;99.90
22319;DHT22;11327;52.334;9.506;2023-12-04T07:35:47;0.90;99.90
22319;DHT22;11327;52.334;9.506;2023-12-04T07:39:08;1.00;99.90
22319;DHT22;11327;52.334;9.506;2023-12-04T07:42:29;1.00;99.90
22319;DHT22;11327;52.334;9.506;2023-12-04T07:45:50;1.10;99.90
22319;DHT22;11327;52.334;9.506;2023-12-04T07:49:11;1.10;99.90
22319;DHT22;11327;52.334;9.506;2023-12-04T07:52:32;1.00;99.90
22319;DHT22;11327;52.334;9.506;2023-12-04T07:55:52;1.00;99.90
22319;DHT22;11327;52.334;9.506;2023-12-04T07:59:14;1.00;99.90
22319;DHT22;11327;52.334;9.506;2023-12-04T08:02:34;0.90;99.90
22319;DHT22;11327;52.334;9.506;2023-12-04T08:05:55;0.90;99.90
22319;DHT22;11327;52.334;9.506;2023-12-04T08:09:16;0.90;99.90
22319;DHT22;11327;52.334;9.506;2023-12-04T08:12:37;0.80;99.90
22319;DHT22;11327;52.334;9.506;2023-12-04T08:15:58;0.80;99.90
22319;DHT22;11327;52.334;9.506;2023-12-04T08:19:18;0.90;99.90
22319;DHT22;11327;52.334;9.506;2023-12-04T08:22:40;0.90;99.90
22319;DHT22;11327;52.334;9.506;2023-12-04T08:26:02;0.90;99.90
22319;DHT22;11327;52.334;9.506;2023-12-04T08:29:22;0.90;99.90
22319;DHT22;11327;52.334;9.506;2023-12-04T08:32:43;0.80;99.90
22319;DHT22;11327;52.334;9.506;2023-12-04T08:36:04;0.80;99.90
22319;DHT22;11327;52.334;9.506;2023-12-04T08:39:25;0.80;99.90
22319;DHT22;11327;52.334;9.506;2023-12-04T08:42:47;0.80;99.90
22319;DHT22;11327;52.334;9.506;2023-12-04T08:46:13;0.90;99.90
22319;DHT22;11327;52.334;9.506;2023-12-04T08:49:34;0.80;99.90
22319;DHT22;11327;52.334;9.506;2023-12-04T08:52:55;0.90;99.90
22319;DHT22;11327;52.334;9.506;2023-12-04T08:56:16;0.90;99.90
22319;DHT22;11327;52.334;9.506;2023-12-04T08:59:36;0.90;99.90
22319;DHT22;11327;52.334;9.506;2023-12-04T09:02:57;0.90;99.90
22319;DHT22;11327;52.334;9.506;2023-12-04T09:06:18;1.00;99.90
22319;DHT22;11327;52.334;9.506;2023-12-04T09:09:38;0.90;99.90
22319;DHT22;11327;52.334;9.506;2023-12-04T09:12:59;0.90;99.90
22319;DHT22;11327;52.334;9.506;2023-12-04T09:16:20;0.90;99.90
22319;DHT22;11327;52.334;9.506;2023-12-04T09:19:41;1.00;99.90
22319;DHT22;11327;52.334;9.506;2023-12-04T09:23:01;1.00;99.90
22319;DHT22;11327;52.334;9.506;2023-12-04T09:26:22;1.00;99.90
22319;DHT22;11327;52.334;9.506;2023-12-04T09:29:43;1.00;99.90
22319;DHT22;11327;52.334;9.506;2023-12-04T09:33:04;1.00;99.90
22319;DHT22;11327;52.334;9.506;2023-12-04T09:36:26;1.00;99.90
22319;DHT22;11327;52.334;9.506;2023-12-04T09:39:47;1.10;99.90
22319;DHT22;11327;52.334;9.506;2023-12-04T09:43:10;1.00;99.90
22319;DHT22;11327;52.334;9.506;2023-12-04T09:46:31;1.00;99.90
22319;DHT22;11327;52.334;9.506;2023-12-04T09:49:53;1.00;99.90
22319;DHT22;11327;52.334;9.506;2023-12-04T09:53:20;1.10;99.90
22319;DHT22;11327;52.334;9.506;2023-12-04T09:56:39;1.00;99.90
22319;DHT22;11327;52.334;9.506;2023-12-04T10:00:02;1.10;99.90
22319;DHT22;11327;52.334;9.506;2023-12-04T10:03:24;1.10;99.90
22319;DHT22;11327;52.334;9.506;2023-12-04T10:06:45;1.10;99.90
22319;DHT22;11327;52.334;9.506;2023-12-04T10:10:06;1.10;99.90
22319;DHT22;11327;52.334;9.506;2023-12-04T10:13:28;1.00;99.90
22319;DHT22;11327;52.334;9.506;2023-12-04T10:16:49;1.00;99.90
22319;DHT22;11327;52.334;9.506;2023-12-04T10:20:16;0.90;99.90
22319;DHT22;11327;52.334;9.506;2023-12-04T10:23:40;0.90;99.90
22319;DHT22;11327;52.334;9.506;2023-12-04T10:27:02;0.80;99.90
22319;DHT22;11327;52.334;9.506;2023-12-04T10:30:27;0.80;99.90
22319;DHT22;11327;52.334;9.506;2023-12-04T10:33:48;0.80;99.90
22319;DHT22;11327;52.334;9.506;2023-12-04T10:37:10;0.80;99.90
22319;DHT22;11327;52.334;9.506;2023-12-04T10:40:33;0.90;99.90
22319;DHT22;11327;52.334;9.506;2023-12-04T10:43:55;1.00;99.90
22319;DHT22;11327;52.334;9.506;2023-12-04T10:47:17;1.00;99.90
22319;DHT22;11327;52.334;9.506;2023-12-04T10:50:42;1.00;99.90
22319;DHT22;11327;52.334;9.506;2023-12-04T10:54:02;0.90;99.90
22319;DHT22;11327;52.334;9.506;2023-12-04T10:57:31;1.00;99.90
22319;DHT22;11327;52.334;9.506;2023-12-04T11:00:53;1.00;99.90
22319;DHT22;11327;52.334;9.506;2023-12-04T11:04:19;1.10;99.90
22319;DHT22;11327;52.334;9.506;2023-12-04T11:07:56;1.10;99.90
22319;DHT22;11327;52.334;9.506;2023-12-04T11:11:27;1.10;99.90
22319;DHT22;11327;52.334;9.506;2023-12-04T11:14:56;1.10;99.90
22319;DHT22;11327;52.334;9.506;2023-12-04T11:18:14;1.20;99.90
22319;DHT22;11327;52.334;9.506;2023-12-04T11:21:36;1.10;99.90
22319;DHT22;11327;52.334;9.506;2023-12-04T11:24:59;1.10;99.90
22319;DHT22;11327;52.334;9.506;2023-12-04T11:28:20;1.10;99.90
22319;DHT22;11327;52.334;9.506;2023-12-04T11:31:41;1.10;99.90
22319;DHT22;11327;52.334;9.506;2023-12-04T11:35:02;1.10;99.90
22319;DHT22;11327;52.334;9.506;2023-12-04T11:38:26;1.10;99.90
22319;DHT22;11327;52.334;9.506;2023-12-04T11:41:47;1.10;99.90
22319;DHT22;11327;52.334;9.506;2023-12-04T11:45:08;1.10;99.90
22319;DHT22;11327;52.334;9.506;2023-12-04T11:48:30;1.20;99.90
22319;DHT22;11327;52.334;9.506;2023-12-04T11:51:51;1.10;99.90
22319;DHT22;11327;52.334;9.506;2023-12-04T11:55:17;1.10;99.90
22319;DHT22;11327;52.334;9.506;2023-12-04T11:58:42;1.10;99.90
22319;DHT22;11327;52.334;9.506;2023-12-04T12:02:10;1.10;99.90
22319;DHT22;11327;52.334;9.506;2023-12-04T12:05:32;1.00;99.90
22319;DHT22;11327;52.334;9.506;2023-12-04T12:08:55;1.10;99.90
22319;DHT22;11327;52.334;9.506;2023-12-04T12:12:17;1.10;99.90
22319;DHT22;11327;52.334;9.506;2023-12-04T12:15:38;1.20;99.90
22319;DHT22;11327;52.334;9.506;2023-12-04T12:19:01;1.10;99.90
22319;DHT22;11327;52.334;9.506;2023-12-04T12:22:22;1.10;99.90
22319;DHT22;11327;52.334;9.506;2023-12-04T12:25:43;1.10;99.90
22319;DHT22;11327;52.334;9.506;2023-12-04T12:29:03;1.10;99.90
22319;DHT22;11327;52.334;9.506;2023-12-04T12:32:24;1.10;99.90
22319;DHT22;11327;52.334;9.506;2023-12-04T12:35:47;1.10;99.90
22319;DHT22;11327;52.334;9.506;2023-12-04T12:39:08;1.10;99.90
22319;DHT22;11327;52.334;9.506;2023-12-04T12:42:30;1.10;99.90
22319;DHT22;11327;52.334;9.506;2023-12-04T12:45:51;1.10;99.90
22319;DHT22;11327;52.334;9.506;2023-12-04T12:49:14;1.00;99.90
22319;DHT22;11327;52.334;9.506;2023-12-04T12:52:34;1.00;99.90
22319;DHT22;11327;52.334;9.506;2023-12-04T12:55:55;1.00;99.90
22319;DHT22;11327;52.334;9.506;2023-12-04T12:59:16;1.00;99.90
22319;DHT22;11327;52.334;9.506;2023-12-04T13:02:38;1.00;99.90
22319;DHT22;11327;52.334;9.506;2023-12-04T13:05:59;1.00;99.90
22319;DHT22;11327;52.334;9.506;2023-12-04T13:09:19;1.00;99.90
22319;DHT22;11327;52.334;9.506;2023-12-04T13:12:40;1.00;99.90
22319;DHT22;11327;52.334;9.506;2023-12-04T13:16:01;1.00;99.90
22319;DHT22;11327;52.334;9.506;2023-12-04T13:19:22;1.00;99.90
22319;DHT22;11327;52.334;9.506;2023-12-04T13:22:43;0.90;99.90
22319;DHT22;11327;52.334;9.506;2023-12-04T13:26:04;0.90;99.90
22319;DHT22;11327;52.334;9.506;2023-12-04T13:29:25;0.90;99.90
22319;DHT22;11327;52.334;9.506;2023-12-04T13:32:46;0.90;99.90
22319;DHT22;11327;52.334;9.506;2023-12-04T13:36:07;1.00;99.90
22319;DHT22;11327;52.334;9.506;2023-12-04T13:39:28;1.00;99.90
22319;DHT22;11327;52.334;9.506;2023-12-04T13:42:51;1.00;99.90
22319;DHT22;11327;52.334;9.506;2023-12-04T13:46:30;1.00;99.90
22319;DHT22;11327;52.334;9.506;2023-12-04T13:49:52;0.80;99.90
22319;DHT22;11327;52.334;9.506;2023-12-04T13:53:12;0.80;99.90
22319;DHT22;11327;52.334;9.506;2023-12-04T13:56:35;0.80;99.90
22319;DHT22;11327;52.334;9.506;2023-12-04T14:00:04;0.80;99.90
22319;DHT22;11327;52.334;9.506;2023-12-04T14:03:26;0.80;99.90
22319;DHT22;11327;52.334;9.506;2023-12-04T14:06:48;0.90;99.90
22319;DHT22;11327;52.334;9.506;2023-12-04T14:10:09;0.90;99.90
22319;DHT22;11327;52.334;9.506;2023-12-04T14:13:32;0.90;99.90
22319;DHT22;11327;52.334;9.506;2023-12-04T14:16:52;1.00;99.90
22319;DHT22;11327;52.334;9.506;2023-12-04T14:20:13;0.90;99.90
22319;DHT22;11327;52.334;9.506;2023-12-04T14:23:36;0.90;99.90
22319;DHT22;11327;52.334;9.506;2023-12-04T14:26:57;0.90;99.90
22319;DHT22;11327;52.334;9.506;2023-12-04T14:30:18;0.90;99.90
22319;DHT22;11327;52.334;9.506;2023-12-04T14:33:39;0.90;99.90
22319;DHT22;11327;52.334;9.506;2023-12-04T14:37:00;0.90;99.90
22319;DHT22;11327;52.334;9.506;2023-12-04T14:40:21;0.90;99.90
22319;DHT22;11327;52.334;9.506;2023-12-04T14:43:42;1.00;99.90
22319;DHT22;11327;52.334;9.506;2023-12-04T14:47:03;1.00;99.90
22319;DHT22;11327;52.334;9.506;2023-12-04T14:50:25;1.00;99.90
22319;DHT22;11327;52.334;9.506;2023-12-04T14:53:45;1.00;99.90
22319;DHT22;11327;52.334;9.506;2023-12-04T14:57:14;1.00;99.90
22319;DHT22;11327;52.334;9.506;2023-12-04T15:00:53;1.00;99.90
22319;DHT22;11327;52.334;9.506;2023-12-04T15:04:16;1.00;99.90
22319;DHT22;11327;52.334;9.506;2023-12-04T15:07:54;1.00;99.90
22319;DHT22;11327;52.334;9.506;2023-12-04T15:11:33;1.00;99.90
22319;DHT22;11327;52.334;9.506;2023-12-04T15:14:58;0.90;99.90
22319;DHT22;11327;52.334;9.506;2023-12-04T15:18:33;0.80;99.90
22319;DHT22;11327;52.334;9.506;2023-12-04T15:21:59;0.80;99.90
22319;DHT22;11327;52.334;9.506;2023-12-04T15:25:19;0.80;99.90
22319;DHT22;11327;52.334;9.506;2023-12-04T15:28:40;0.90;99.90
22319;DHT22;11327;52.334;9.506;2023-12-04T15:32:01;1.00;99.90
22319;DHT22;11327;52.334;9.506;2023-12-04T15:35:22;0.90;99.90
22319;DHT22;11327;52.334;9.506;2023-12-04T15:38:42;0.90;99.90
22319;DHT22;11327;52.334;9.506;2023-12-04T15:42:04;0.90;99.90
22319;DHT22;11327;52.334;9.506;2023-12-04T15:45:27;0.90;99.90
22319;DHT22;11327;52.334;9.506;2023-12-04T15:48:48;0.90;99.90
22319;DHT22;11327;52.334;9.506;2023-12-04T15:52:08;0.90;99.90
22319;DHT22;11327;52.334;9.506;2023-12-04T15:55:29;1.00;99.90
22319;DHT22;11327;52.334;9.506;2023-12-04T15:58:50;1.00;99.90
22319;DHT22;11327;52.334;9.506;2023-12-04T16:02:11;1.00;99.90
22319;DHT22;11327;52.334;9.506;2023-12-04T16:05:32;1.00;99.90
22319;DHT22;11327;52.334;9.506;2023-12-04T16:08:53;0.90;99.90
22319;DHT22;11327;52.334;9.506;2023-12-04T16:12:15;0.90;99.90
22319;DHT22;11327;52.334;9.506;2023-12-04T16:15:36;0.90;99.90
22319;DHT22;11327;52.334;9.506;2023-12-04T16:18:57;0.90;99.90
22319;DHT22;11327;52.334;9.506;2023-12-04T16:22:18;0.90;99.90
22319;DHT22;11327;52.334;9.506;2023-12-04T16:25:38;0.90;99.90
22319;DHT22;11327;52.334;9.506;2023-12-04T16:28:59;0.80;99.90
22319;DHT22;11327;52.334;9.506;2023-12-04T16:32:20;0.80;99.90
22319;DHT22;11327;52.334;9.506;2023-12-04T16:35:40;0.80;99.90
22319;DHT22;11327;52.334;9.506;2023-12-04T16:39:01;0.80;99.90
22319;DHT22;11327;52.334;9.506;2023-12-04T16:42:22;0.90;99.90
22319;DHT22;11327;52.334;9.506;2023-12-04T16:45:42;1.00;99.90
22319;DHT22;11327;52.334;9.506;2023-12-04T16:49:03;1.00;99.90
22319;DHT22;11327;52.334;9.506;2023-12-04T16:52:24;1.00;99.90
22319;DHT22;11327;52.334;9.506;2023-12-04T16:55:45;1.00;99.90
22319;DHT22;11327;52.334;9.506;2023-12-04T16:59:05;1.00;99.90
22319;DHT22;11327;52.334;9.506;2023-12-04T17:02:26;0.90;99.90
22319;DHT22;11327;52.334;9.506;2023-12-04T17:05:47;1.00;99.90
22319;DHT22;11327;52.334;9.506;2023-12-04T17:09:08;1.00;99.90
22319;DHT22;11327;52.334;9.506;2023-12-04T17:12:28;1.10;99.90
22319;DHT22;11327;52.334;9.506;2023-12-04T17:15:51;1.10;99.90
22319;DHT22;11327;52.334;9.506;2023-12-04T17:19:11;1.10;99.90
22319;DHT22;11327;52.334;9.506;2023-12-04T17:22:32;1.20;99.90
22319;DHT22;11327;52.334;9.506;2023-12-04T17:25:53;1.10;99.90
22319;DHT22;11327;52.334;9.506;2023-12-04T17:29:14;1.00;99.90
22319;DHT22;11327;52.334;9.506;2023-12-04T17:32:35;1.00;99.90
22319;DHT22;11327;52.334;9.506;2023-12-04T17:35:56;1.00;99.90
22319;DHT22;11327;52.334;9.506;2023-12-04T17:39:17;1.00;99.90
22319;DHT22;11327;52.334;9.506;2023-12-04T17:42:37;0.90;99.90
22319;DHT22;11327;52.334;9.506;2023-12-04T17:45:58;0.90;99.90
22319;DHT22;11327;52.334;9.506;2023-12-04T17:49:19;0.90;99.90
22319;DHT22;11327;52.334;9.506;2023-12-04T17:52:40;1.00;99.90
22319;DHT22;11327;52.334;9.506;2023-12-04T17:56:02;1.00;99.90
22319;DHT22;11327;52.334;9.506;2023-12-04T17:59:23;0.90;99.90
22319;DHT22;11327;52.334;9.506;2023-12-04T18:02:44;0.90;99.90
22319;DHT22;11327;52.334;9.506;2023-12-04T18:06:06;0.90;99.90
22319;DHT22;11327;52.334;9.506;2023-12-04T18:09:27;1.00;99.90
22319;DHT22;11327;52.334;9.506;2023-12-04T18:12:48;0.90;99.90
22319;DHT22;11327;52.334;9.506;2023-12-04T18:16:09;0.90;99.90
22319;DHT22;11327;52.334;9.506;2023-12-04T18:19:30;0.90;99.90
22319;DHT22;11327;52.334;9.506;2023-12-04T18:22:50;0.90;99.90
22319;DHT22;11327;52.334;9.506;2023-12-04T18:26:13;0.90;99.90
22319;DHT22;11327;52.334;9.506;2023-12-04T18:29:34;0.90;99.90
22319;DHT22;11327;52.334;9.506;2023-12-04T18:32:55;0.90;99.90
22319;DHT22;11327;52.334;9.506;2023-12-04T18:36:16;0.90;99.90
22319;DHT22;11327;52.334;9.506;2023-12-04T18:39:39;0.90;99.90
22319;DHT22;11327;52.334;9.506;2023-12-04T18:43:01;1.00;99.90
22319;DHT22;11327;52.334;9.506;2023-12-04T18:46:22;1.00;99.90
22319;DHT22;11327;52.334;9.506;2023-12-04T18:49:49;1.00;99.90
22319;DHT22;11327;52.334;9.506;2023-12-04T18:53:11;1.00;99.90
22319;DHT22;11327;52.334;9.506;2023-12-04T18:56:32;0.90;99.90
22319;DHT22;11327;52.334;9.506;2023-12-04T18:59:53;1.00;99.90
22319;DHT22;11327;52.334;9.506;2023-12-04T19:03:13;1.00;99.90
22319;DHT22;11327;52.334;9.506;2023-12-04T19:06:34;0.90;99.90
22319;DHT22;11327;52.334;9.506;2023-12-04T19:09:55;0.90;99.90
22319;DHT22;11327;52.334;9.506;2023-12-04T19:13:16;0.80;99.90
22319;DHT22;11327;52.334;9.506;2023-12-04T19:16:37;0.90;99.90
22319;DHT22;11327;52.334;9.506;2023-12-04T19:19:57;0.80;99.90
22319;DHT22;11327;52.334;9.506;2023-12-04T19:23:18;0.90;99.90
22319;DHT22;11327;52.334;9.506;2023-12-04T19:26:39;0.90;99.90
22319;DHT22;11327;52.334;9.506;2023-12-04T19:29:59;1.00;99.90
22319;DHT22;11327;52.334;9.506;2023-12-04T19:33:20;1.00;99.90
22319;DHT22;11327;52.334;9.506;2023-12-04T19:36:41;0.90;99.90
22319;DHT22;11327;52.334;9.506;2023-12-04T19:40:02;0.90;99.90
22319;DHT22;11327;52.334;9.506;2023-12-04T19:43:23;0.90;99.90
22319;DHT22;11327;52.334;9.506;2023-12-04T19:46:44;0.80;99.90
22319;DHT22;11327;52.334;9.506;2023-12-04T19:50:05;0.70;99.90
22319;DHT22;11327;52.334;9.506;2023-12-04T19:53:28;0.80;99.90
22319;DHT22;11327;52.334;9.506;2023-12-04T19:56:49;0.70;99.90
22319;DHT22;11327;52.334;9.506;2023-12-04T20:00:11;0.60;99.90
22319;DHT22;11327;52.334;9.506;2023-12-04T20:03:32;0.60;99.90
22319;DHT22;11327;52.334;9.506;2023-12-04T20:06:53;0.60;99.90
22319;DHT22;11327;52.334;9.506;2023-12-04T20:10:16;0.80;99.90
22319;DHT22;11327;52.334;9.506;2023-12-04T20:13:37;0.70;99.90
22319;DHT22;11327;52.334;9.506;2023-12-04T20:16:59;0.70;99.90
22319;DHT22;11327;52.334;9.506;2023-12-04T20:20:20;0.70;99.90
22319;DHT22;11327;52.334;9.506;2023-12-04T20:23:40;0.70;99.90
22319;DHT22;11327;52.334;9.506;2023-12-04T20:27:01;0.70;99.90
22319;DHT22;11327;52.334;9.506;2023-12-04T20:30:22;0.60;99.90
22319;DHT22;11327;52.334;9.506;2023-12-04T20:33:43;0.60;99.90
22319;DHT22;11327;52.334;9.506;2023-12-04T20:37:04;0.60;99.90
22319;DHT22;11327;52.334;9.506;2023-12-04T20:40:25;0.60;99.90
22319;DHT22;11327;52.334;9.506;2023-12-04T20:43:46;0.60;99.90
22319;DHT22;11327;52.334;9.506;2023-12-04T20:47:07;0.60;99.90
22319;DHT22;11327;52.334;9.506;2023-12-04T20:50:27;0.60;99.90
22319;DHT22;11327;52.334;9.506;2023-12-04T20:53:48;0.60;99.90
22319;DHT22;11327;52.334;9.506;2023-12-04T20:57:09;0.60;99.90
22319;DHT22;11327;52.334;9.506;2023-12-04T21:00:29;0.50;99.90
22319;DHT22;11327;52.334;9.506;2023-12-04T21:03:52;0.50;99.90
22319;DHT22;11327;52.334;9.506;2023-12-04T21:07:13;0.50;99.90
22319;DHT22;11327;52.334;9.506;2023-12-04T21:10:35;0.50;99.90
22319;DHT22;11327;52.334;9.506;2023-12-04T21:13:55;0.50;99.90
22319;DHT22;11327;52.334;9.506;2023-12-04T21:17:16;0.50;99.90
22319;DHT22;11327;52.334;9.506;2023-12-04T21:20:37;0.40;99.90
22319;DHT22;11327;52.334;9.506;2023-12-04T21:23:58;0.30;99.90
22319;DHT22;11327;52.334;9.506;2023-12-04T21:27:18;0.30;99.90
22319;DHT22;11327;52.334;9.506;2023-12-04T21:30:39;0.30;99.90
22319;DHT22;11327;52.334;9.506;2023-12-04T21:34:00;0.30;99.90